sensor_id;sensor_type;location;lat;lon;timestamp;temperature;humidity
29203;DHT22;16245;51.170;4.884;2022-12-07T00:01:36;5.80;99.90
29203;DHT22;16245;51.170;4.884;2022-12-07T00:04:04;5.90;99.90
29203;DHT22;16245;51.170;4.884;2022-12-07T00:06:35;5.80;99.90
29203;DHT22;16245;51.170;4.884;2022-12-07T00:09:01;5.90;99.90
29203;DHT22;16245;51.170;4.884;2022-12-07T00:11:26;5.90;99.90
29203;DHT22;16245;51.170;4.884;2022-12-07T00:13:58;6.00;99.90
29203;DHT22;16245;51.170;4.884;2022-12-07T00:16:26;6.00;99.90
29203;DHT22;16245;51.170;4.884;2022-12-07T00:18:52;6.20;99.90
29203;DHT22;16245;51.170;4.884;2022-12-07T00:21:21;6.20;99.90
29203;DHT22;16245;51.170;4.884;2022-12-07T00:23:48;6.30;99.90
29203;DHT22;16245;51.170;4.884;2022-12-07T00:26:19;6.20;99.90
29203;DHT22;16245;51.170;4.884;2022-12-07T00:28:53;6.20;99.90
29203;DHT22;16245;51.170;4.884;2022-12-07T00:31:20;6.30;99.90
29203;DHT22;16245;51.170;4.884;2022-12-07T00:33:47;6.40;99.90
29203;DHT22;16245;51.170;4.884;2022-12-07T00:36:15;6.40;99.90
29203;DHT22;16245;51.170;4.884;2022-12-07T00:38:41;6.30;99.90
29203;DHT22;16245;51.170;4.884;2022-12-07T00:41:16;6.30;99.90
29203;DHT22;16245;51.170;4.884;2022-12-07T00:43:43;6.30;99.90
29203;DHT22;16245;51.170;4.884;2022-12-07T00:46:09;6.20;99.90
29203;DHT22;16245;51.170;4.884;2022-12-07T00:48:35;6.30;99.90
29203;DHT22;16245;51.170;4.884;2022-12-07T00:51:02;6.40;99.90
29203;DHT22;16245;51.170;4.884;2022-12-07T00:53:29;6.40;99.90
29203;DHT22;16245;51.170;4.884;2022-12-07T00:55:55;6.40;99.90
29203;DHT22;16245;51.170;4.884;2022-12-07T00:58:21;6.30;99.90
29203;DHT22;16245;51.170;4.884;2022-12-07T01:00:47;6.30;99.90
29203;DHT22;16245;51.170;4.884;2022-12-07T01:03:14;6.30;99.90
29203;DHT22;16245;51.170;4.884;2022-12-07T01:05:49;6.40;99.90
29203;DHT22;16245;51.170;4.884;2022-12-07T01:08:15;6.40;99.90
29203;DHT22;16245;51.170;4.884;2022-12-07T01:10:41;6.40;99.90
29203;DHT22;16245;51.170;4.884;2022-12-07T01:13:07;6.40;99.90
29203;DHT22;16245;51.170;4.884;2022-12-07T01:15:32;6.50;99.90
29203;DHT22;16245;51.170;4.884;2022-12-07T01:17:58;6.50;99.90
29203;DHT22;16245;51.170;4.884;2022-12-07T01:20:23;6.40;99.90
29203;DHT22;16245;51.170;4.884;2022-12-07T01:22:49;6.30;99.90
29203;DHT22;16245;51.170;4.884;2022-12-07T01:25:15;6.30;99.90
29203;DHT22;16245;51.170;4.884;2022-12-07T01:27:40;6.30;99.90
29203;DHT22;16245;51.170;4.884;2022-12-07T01:30:06;6.30;99.90
29203;DHT22;16245;51.170;4.884;2022-12-07T01:32:33;6.40;99.90
29203;DHT22;16245;51.170;4.884;2022-12-07T01:34:59;6.40;99.90
29203;DHT22;16245;51.170;4.884;2022-12-07T01:37:24;6.50;99.90
29203;DHT22;16245;51.170;4.884;2022-12-07T01:39:51;6.30;99.90
29203;DHT22;16245;51.170;4.884;2022-12-07T01:42:18;6.30;99.90
29203;DHT22;16245;51.170;4.884;2022-12-07T01:47:41;6.20;99.90
29203;DHT22;16245;51.170;4.884;2022-12-07T01:50:07;6.30;99.90
29203;DHT22;16245;51.170;4.884;2022-12-07T01:52:34;6.30;99.90
29203;DHT22;16245;51.170;4.884;2022-12-07T01:55:04;6.20;99.90
29203;DHT22;16245;51.170;4.884;2022-12-07T01:57:33;6.10;99.90
29203;DHT22;16245;51.170;4.884;2022-12-07T02:00:00;6.00;99.90
29203;DHT22;16245;51.170;4.884;2022-12-07T02:02:29;6.00;99.90
29203;DHT22;16245;51.170;4.884;2022-12-07T02:04:57;6.00;99.90
29203;DHT22;16245;51.170;4.884;2022-12-07T02:07:25;6.00;99.90
29203;DHT22;16245;51.170;4.884;2022-12-07T02:09:52;6.00;99.90
29203;DHT22;16245;51.170;4.884;2022-12-07T02:12:18;6.00;99.90
29203;DHT22;16245;51.170;4.884;2022-12-07T02:14:44;6.00;99.90
29203;DHT22;16245;51.170;4.884;2022-12-07T02:17:21;6.20;99.90
29203;DHT22;16245;51.170;4.884;2022-12-07T02:23:04;6.40;99.90
29203;DHT22;16245;51.170;4.884;2022-12-07T02:26:31;6.70;99.90
29203;DHT22;16245;51.170;4.884;2022-12-07T02:28:46;6.60;99.90
29203;DHT22;16245;51.170;4.884;2022-12-07T02:31:16;6.40;99.90
29203;DHT22;16245;51.170;4.884;2022-12-07T02:33:48;6.30;99.90
29203;DHT22;16245;51.170;4.884;2022-12-07T02:36:43;6.20;99.90
29203;DHT22;16245;51.170;4.884;2022-12-07T02:39:18;6.20;99.90
29203;DHT22;16245;51.170;4.884;2022-12-07T02:41:55;6.20;99.90
29203;DHT22;16245;51.170;4.884;2022-12-07T02:44:25;6.20;99.90
29203;DHT22;16245;51.170;4.884;2022-12-07T02:47:02;6.20;99.90
29203;DHT22;16245;51.170;4.884;2022-12-07T02:49:30;6.30;99.90
29203;DHT22;16245;51.170;4.884;2022-12-07T02:51:56;6.20;99.90
29203;DHT22;16245;51.170;4.884;2022-12-07T02:54:22;6.10;99.90
29203;DHT22;16245;51.170;4.884;2022-12-07T02:56:49;6.10;99.90
29203;DHT22;16245;51.170;4.884;2022-12-07T03:08:01;5.90;99.90
29203;DHT22;16245;51.170;4.884;2022-12-07T03:10:40;5.90;99.90
29203;DHT22;16245;51.170;4.884;2022-12-07T03:19:05;5.80;99.90
29203;DHT22;16245;51.170;4.884;2022-12-07T03:21:44;5.80;99.90
29203;DHT22;16245;51.170;4.884;2022-12-07T03:24:15;5.80;99.90
29203;DHT22;16245;51.170;4.884;2022-12-07T03:26:46;5.80;99.90
29203;DHT22;16245;51.170;4.884;2022-12-07T03:29:22;5.80;99.90
29203;DHT22;16245;51.170;4.884;2022-12-07T03:31:58;5.60;99.90
29203;DHT22;16245;51.170;4.884;2022-12-07T03:34:34;5.70;99.90
29203;DHT22;16245;51.170;4.884;2022-12-07T03:37:08;5.60;99.90
29203;DHT22;16245;51.170;4.884;2022-12-07T03:40:05;5.70;99.90
29203;DHT22;16245;51.170;4.884;2022-12-07T03:42:33;5.70;99.90
29203;DHT22;16245;51.170;4.884;2022-12-07T03:45:00;5.60;99.90
29203;DHT22;16245;51.170;4.884;2022-12-07T03:47:29;5.30;99.90
29203;DHT22;16245;51.170;4.884;2022-12-07T03:50:05;5.10;99.90
29203;DHT22;16245;51.170;4.884;2022-12-07T03:53:10;4.90;99.90
29203;DHT22;16245;51.170;4.884;2022-12-07T03:55:39;4.70;99.90
29203;DHT22;16245;51.170;4.884;2022-12-07T03:58:10;4.70;99.90
29203;DHT22;16245;51.170;4.884;2022-12-07T04:00:36;4.70;99.90
29203;DHT22;16245;51.170;4.884;2022-12-07T04:03:02;4.90;99.90
29203;DHT22;16245;51.170;4.884;2022-12-07T04:05:29;4.70;99.90
29203;DHT22;16245;51.170;4.884;2022-12-07T04:07:54;4.70;99.90
29203;DHT22;16245;51.170;4.884;2022-12-07T04:10:20;4.60;99.90
29203;DHT22;16245;51.170;4.884;2022-12-07T04:12:46;4.60;99.90
29203;DHT22;16245;51.170;4.884;2022-12-07T04:15:12;4.60;99.90
29203;DHT22;16245;51.170;4.884;2022-12-07T04:17:38;4.60;99.90
29203;DHT22;16245;51.170;4.884;2022-12-07T04:20:05;4.50;99.90
29203;DHT22;16245;51.170;4.884;2022-12-07T04:22:31;4.50;99.90
29203;DHT22;16245;51.170;4.884;2022-12-07T04:24:57;4.50;99.90
29203;DHT22;16245;51.170;4.884;2022-12-07T04:27:22;4.50;99.90
29203;DHT22;16245;51.170;4.884;2022-12-07T04:29:48;4.60;99.90
29203;DHT22;16245;51.170;4.884;2022-12-07T04:32:13;4.70;99.90
29203;DHT22;16245;51.170;4.884;2022-12-07T04:34:39;5.00;99.90
29203;DHT22;16245;51.170;4.884;2022-12-07T04:37:05;5.00;99.90
29203;DHT22;16245;51.170;4.884;2022-12-07T04:39:32;5.10;99.90
29203;DHT22;16245;51.170;4.884;2022-12-07T04:41:58;5.00;99.90
29203;DHT22;16245;51.170;4.884;2022-12-07T04:44:25;5.00;99.90
29203;DHT22;16245;51.170;4.884;2022-12-07T04:46:51;5.10;99.90
29203;DHT22;16245;51.170;4.884;2022-12-07T04:49:18;5.40;99.90
29203;DHT22;16245;51.170;4.884;2022-12-07T04:51:44;5.60;99.90
29203;DHT22;16245;51.170;4.884;2022-12-07T04:54:10;5.60;99.90
29203;DHT22;16245;51.170;4.884;2022-12-07T04:56:37;5.40;99.90
29203;DHT22;16245;51.170;4.884;2022-12-07T04:59:03;5.40;99.90
29203;DHT22;16245;51.170;4.884;2022-12-07T05:01:29;5.50;99.90
29203;DHT22;16245;51.170;4.884;2022-12-07T05:03:55;5.40;99.90
29203;DHT22;16245;51.170;4.884;2022-12-07T05:06:21;5.30;99.90
29203;DHT22;16245;51.170;4.884;2022-12-07T05:08:46;5.40;99.90
29203;DHT22;16245;51.170;4.884;2022-12-07T05:11:13;5.30;99.90
29203;DHT22;16245;51.170;4.884;2022-12-07T05:13:58;5.20;99.90
29203;DHT22;16245;51.170;4.884;2022-12-07T05:16:24;5.20;99.90
29203;DHT22;16245;51.170;4.884;2022-12-07T05:18:50;5.20;99.90
29203;DHT22;16245;51.170;4.884;2022-12-07T05:21:15;5.20;99.90
29203;DHT22;16245;51.170;4.884;2022-12-07T05:23:41;5.20;99.90
29203;DHT22;16245;51.170;4.884;2022-12-07T05:26:06;5.10;99.90
29203;DHT22;16245;51.170;4.884;2022-12-07T05:28:32;5.10;99.90
29203;DHT22;16245;51.170;4.884;2022-12-07T05:30:58;5.00;99.90
29203;DHT22;16245;51.170;4.884;2022-12-07T05:33:23;5.00;99.90
29203;DHT22;16245;51.170;4.884;2022-12-07T05:35:49;5.00;99.90
29203;DHT22;16245;51.170;4.884;2022-12-07T05:38:14;5.10;99.90
29203;DHT22;16245;51.170;4.884;2022-12-07T05:40:40;5.10;99.90
29203;DHT22;16245;51.170;4.884;2022-12-07T05:43:06;5.20;99.90
29203;DHT22;16245;51.170;4.884;2022-12-07T05:45:31;5.10;99.90
29203;DHT22;16245;51.170;4.884;2022-12-07T05:47:57;5.10;99.90
29203;DHT22;16245;51.170;4.884;2022-12-07T05:50:23;5.00;99.90
29203;DHT22;16245;51.170;4.884;2022-12-07T05:52:49;5.10;99.90
29203;DHT22;16245;51.170;4.884;2022-12-07T05:55:14;5.10;99.90
29203;DHT22;16245;51.170;4.884;2022-12-07T05:57:40;5.00;99.90
29203;DHT22;16245;51.170;4.884;2022-12-07T06:00:25;5.00;99.90
29203;DHT22;16245;51.170;4.884;2022-12-07T06:02:51;5.00;99.90
29203;DHT22;16245;51.170;4.884;2022-12-07T06:05:17;5.00;99.90
29203;DHT22;16245;51.170;4.884;2022-12-07T06:07:42;5.20;99.90
29203;DHT22;16245;51.170;4.884;2022-12-07T06:10:08;5.20;99.90
29203;DHT22;16245;51.170;4.884;2022-12-07T06:12:34;5.20;99.90
29203;DHT22;16245;51.170;4.884;2022-12-07T06:15:00;5.30;99.90
29203;DHT22;16245;51.170;4.884;2022-12-07T06:17:26;5.30;99.90
29203;DHT22;16245;51.170;4.884;2022-12-07T06:19:52;5.20;99.90
29203;DHT22;16245;51.170;4.884;2022-12-07T06:22:17;5.10;99.90
29203;DHT22;16245;51.170;4.884;2022-12-07T06:24:43;5.10;99.90
29203;DHT22;16245;51.170;4.884;2022-12-07T06:27:10;5.10;99.90
29203;DHT22;16245;51.170;4.884;2022-12-07T06:29:36;5.10;99.90
29203;DHT22;16245;51.170;4.884;2022-12-07T06:32:02;5.00;99.90
29203;DHT22;16245;51.170;4.884;2022-12-07T06:34:28;5.00;99.90
29203;DHT22;16245;51.170;4.884;2022-12-07T06:36:54;4.90;99.90
29203;DHT22;16245;51.170;4.884;2022-12-07T06:39:25;4.80;99.90
29203;DHT22;16245;51.170;4.884;2022-12-07T06:41:51;4.70;99.90
29203;DHT22;16245;51.170;4.884;2022-12-07T06:44:20;4.60;99.90
29203;DHT22;16245;51.170;4.884;2022-12-07T06:46:47;4.60;99.90
29203;DHT22;16245;51.170;4.884;2022-12-07T06:49:13;4.60;99.90
29203;DHT22;16245;51.170;4.884;2022-12-07T06:51:39;4.50;99.90
29203;DHT22;16245;51.170;4.884;2022-12-07T06:54:14;4.40;99.90
29203;DHT22;16245;51.170;4.884;2022-12-07T06:56:40;4.20;99.90
29203;DHT22;16245;51.170;4.884;2022-12-07T06:59:06;4.20;99.90
29203;DHT22;16245;51.170;4.884;2022-12-07T07:01:33;4.10;99.90
29203;DHT22;16245;51.170;4.884;2022-12-07T07:03:59;4.00;99.90
29203;DHT22;16245;51.170;4.884;2022-12-07T07:06:25;4.10;99.90
29203;DHT22;16245;51.170;4.884;2022-12-07T07:08:51;4.10;99.90
29203;DHT22;16245;51.170;4.884;2022-12-07T07:11:17;4.10;99.90
29203;DHT22;16245;51.170;4.884;2022-12-07T07:13:42;4.20;99.90
29203;DHT22;16245;51.170;4.884;2022-12-07T07:16:08;4.10;99.90
29203;DHT22;16245;51.170;4.884;2022-12-07T07:18:34;4.00;99.90
29203;DHT22;16245;51.170;4.884;2022-12-07T07:21:00;4.00;99.90
29203;DHT22;16245;51.170;4.884;2022-12-07T07:23:26;4.10;99.90
29203;DHT22;16245;51.170;4.884;2022-12-07T07:25:52;4.00;99.90
29203;DHT22;16245;51.170;4.884;2022-12-07T07:28:18;4.00;99.90
29203;DHT22;16245;51.170;4.884;2022-12-07T07:30:44;4.00;99.90
29203;DHT22;16245;51.170;4.884;2022-12-07T07:33:10;4.00;99.90
29203;DHT22;16245;51.170;4.884;2022-12-07T07:35:36;3.90;99.90
29203;DHT22;16245;51.170;4.884;2022-12-07T07:38:06;3.80;99.90
29203;DHT22;16245;51.170;4.884;2022-12-07T07:40:32;3.70;99.90
29203;DHT22;16245;51.170;4.884;2022-12-07T07:42:58;3.60;99.90
29203;DHT22;16245;51.170;4.884;2022-12-07T07:45:25;3.60;99.90
29203;DHT22;16245;51.170;4.884;2022-12-07T07:47:51;3.60;99.90
29203;DHT22;16245;51.170;4.884;2022-12-07T07:50:18;3.60;99.90
29203;DHT22;16245;51.170;4.884;2022-12-07T07:52:44;3.60;99.90
29203;DHT22;16245;51.170;4.884;2022-12-07T07:55:10;3.60;99.90
29203;DHT22;16245;51.170;4.884;2022-12-07T07:57:37;3.70;99.90
29203;DHT22;16245;51.170;4.884;2022-12-07T08:00:09;3.90;99.90
29203;DHT22;16245;51.170;4.884;2022-12-07T08:02:35;3.90;99.90
29203;DHT22;16245;51.170;4.884;2022-12-07T08:05:01;4.00;99.90
29203;DHT22;16245;51.170;4.884;2022-12-07T08:07:27;4.10;99.90
29203;DHT22;16245;51.170;4.884;2022-12-07T08:09:53;4.20;99.90
29203;DHT22;16245;51.170;4.884;2022-12-07T08:12:19;4.20;99.90
29203;DHT22;16245;51.170;4.884;2022-12-07T08:14:45;4.30;99.90
29203;DHT22;16245;51.170;4.884;2022-12-07T08:17:10;4.40;99.90
29203;DHT22;16245;51.170;4.884;2022-12-07T08:19:36;4.50;99.90
29203;DHT22;16245;51.170;4.884;2022-12-07T08:22:02;4.70;99.90
29203;DHT22;16245;51.170;4.884;2022-12-07T08:24:27;4.60;99.90
29203;DHT22;16245;51.170;4.884;2022-12-07T08:26:53;4.70;99.90
29203;DHT22;16245;51.170;4.884;2022-12-07T08:29:19;4.70;99.90
29203;DHT22;16245;51.170;4.884;2022-12-07T08:31:45;4.70;99.90
29203;DHT22;16245;51.170;4.884;2022-12-07T08:34:11;4.80;99.90
29203;DHT22;16245;51.170;4.884;2022-12-07T08:36:37;4.80;99.90
29203;DHT22;16245;51.170;4.884;2022-12-07T08:39:03;4.80;99.90
29203;DHT22;16245;51.170;4.884;2022-12-07T08:41:32;5.00;99.90
29203;DHT22;16245;51.170;4.884;2022-12-07T08:43:58;5.10;99.90
29203;DHT22;16245;51.170;4.884;2022-12-07T08:46:29;5.10;99.90
29203;DHT22;16245;51.170;4.884;2022-12-07T08:49:18;5.20;99.90
29203;DHT22;16245;51.170;4.884;2022-12-07T08:51:44;5.30;99.90
29203;DHT22;16245;51.170;4.884;2022-12-07T08:54:12;5.40;99.90
29203;DHT22;16245;51.170;4.884;2022-12-07T08:56:39;5.50;99.90
29203;DHT22;16245;51.170;4.884;2022-12-07T08:59:06;5.70;99.90
29203;DHT22;16245;51.170;4.884;2022-12-07T09:01:32;5.90;99.90
29203;DHT22;16245;51.170;4.884;2022-12-07T09:03:58;5.80;99.90
29203;DHT22;16245;51.170;4.884;2022-12-07T09:06:24;5.90;99.90
29203;DHT22;16245;51.170;4.884;2022-12-07T09:08:52;5.90;99.90
29203;DHT22;16245;51.170;4.884;2022-12-07T09:11:18;5.90;99.90
29203;DHT22;16245;51.170;4.884;2022-12-07T09:13:43;6.00;99.90
29203;DHT22;16245;51.170;4.884;2022-12-07T09:16:09;6.00;99.90
29203;DHT22;16245;51.170;4.884;2022-12-07T09:18:35;6.00;99.90
29203;DHT22;16245;51.170;4.884;2022-12-07T09:21:00;6.20;99.90
29203;DHT22;16245;51.170;4.884;2022-12-07T09:23:26;6.30;99.90
29203;DHT22;16245;51.170;4.884;2022-12-07T09:25:54;6.40;99.90
29203;DHT22;16245;51.170;4.884;2022-12-07T09:28:20;6.40;99.90
29203;DHT22;16245;51.170;4.884;2022-12-07T09:30:49;6.50;99.90
29203;DHT22;16245;51.170;4.884;2022-12-07T09:33:15;6.40;99.90
29203;DHT22;16245;51.170;4.884;2022-12-07T09:35:46;6.40;99.90
29203;DHT22;16245;51.170;4.884;2022-12-07T09:38:12;6.50;99.90
29203;DHT22;16245;51.170;4.884;2022-12-07T09:40:38;6.40;99.90
29203;DHT22;16245;51.170;4.884;2022-12-07T09:43:04;6.40;99.90
29203;DHT22;16245;51.170;4.884;2022-12-07T09:45:35;6.40;99.90
29203;DHT22;16245;51.170;4.884;2022-12-07T09:48:03;6.50;99.90
29203;DHT22;16245;51.170;4.884;2022-12-07T09:50:29;6.60;99.90
29203;DHT22;16245;51.170;4.884;2022-12-07T09:53:12;6.80;99.90
29203;DHT22;16245;51.170;4.884;2022-12-07T09:55:39;6.90;99.90
29203;DHT22;16245;51.170;4.884;2022-12-07T09:58:06;7.10;99.90
29203;DHT22;16245;51.170;4.884;2022-12-07T10:00:31;7.20;99.90
29203;DHT22;16245;51.170;4.884;2022-12-07T10:02:58;7.80;99.90
29203;DHT22;16245;51.170;4.884;2022-12-07T10:05:35;8.90;99.90
29203;DHT22;16245;51.170;4.884;2022-12-07T10:08:03;9.70;99.90
29203;DHT22;16245;51.170;4.884;2022-12-07T10:10:34;10.30;99.90
29203;DHT22;16245;51.170;4.884;2022-12-07T10:13:02;10.90;99.90
29203;DHT22;16245;51.170;4.884;2022-12-07T10:15:48;11.00;99.90
29203;DHT22;16245;51.170;4.884;2022-12-07T10:18:31;10.90;99.90
29203;DHT22;16245;51.170;4.884;2022-12-07T10:21:13;10.90;99.90
29203;DHT22;16245;51.170;4.884;2022-12-07T10:31:41;11.00;99.90
29203;DHT22;16245;51.170;4.884;2022-12-07T10:34:24;11.20;99.90
29203;DHT22;16245;51.170;4.884;2022-12-07T10:36:52;11.20;99.90
29203;DHT22;16245;51.170;4.884;2022-12-07T10:39:22;10.70;99.90
29203;DHT22;16245;51.170;4.884;2022-12-07T10:44:23;9.80;99.90
29203;DHT22;16245;51.170;4.884;2022-12-07T11:00:58;8.20;99.90
29203;DHT22;16245;51.170;4.884;2022-12-07T11:06:36;8.00;99.90
29203;DHT22;16245;51.170;4.884;2022-12-07T11:09:41;8.20;99.90
29203;DHT22;16245;51.170;4.884;2022-12-07T11:18:10;8.20;99.90
29203;DHT22;16245;51.170;4.884;2022-12-07T11:20:56;8.20;99.90
29203;DHT22;16245;51.170;4.884;2022-12-07T11:28:45;8.40;99.90
29203;DHT22;16245;51.170;4.884;2022-12-07T11:37:13;8.70;99.90
29203;DHT22;16245;51.170;4.884;2022-12-07T11:39:56;8.80;99.90
29203;DHT22;16245;51.170;4.884;2022-12-07T11:42:29;8.80;99.90
29203;DHT22;16245;51.170;4.884;2022-12-07T11:45:13;8.90;99.90
29203;DHT22;16245;51.170;4.884;2022-12-07T11:48:03;9.00;99.90
29203;DHT22;16245;51.170;4.884;2022-12-07T11:50:48;9.10;99.90
29203;DHT22;16245;51.170;4.884;2022-12-07T11:53:26;9.30;99.90
29203;DHT22;16245;51.170;4.884;2022-12-07T12:04:30;9.40;99.90
29203;DHT22;16245;51.170;4.884;2022-12-07T12:06:42;9.40;99.90
29203;DHT22;16245;51.170;4.884;2022-12-07T12:09:27;9.40;99.90
29203;DHT22;16245;51.170;4.884;2022-12-07T12:17:19;8.90;99.90
29203;DHT22;16245;51.170;4.884;2022-12-07T12:20:26;8.60;99.90
29203;DHT22;16245;51.170;4.884;2022-12-07T12:23:14;8.60;99.90
29203;DHT22;16245;51.170;4.884;2022-12-07T12:25:47;8.60;99.90
29203;DHT22;16245;51.170;4.884;2022-12-07T12:33:47;8.60;99.90
29203;DHT22;16245;51.170;4.884;2022-12-07T12:36:43;8.60;99.90
29203;DHT22;16245;51.170;4.884;2022-12-07T12:39:19;8.70;99.90
29203;DHT22;16245;51.170;4.884;2022-12-07T12:46:52;8.80;99.90
29203;DHT22;16245;51.170;4.884;2022-12-07T12:51:48;8.70;99.90
29203;DHT22;16245;51.170;4.884;2022-12-07T12:54:21;8.50;99.90
29203;DHT22;16245;51.170;4.884;2022-12-07T12:59:31;8.50;99.90
29203;DHT22;16245;51.170;4.884;2022-12-07T13:10:38;8.70;99.90
29203;DHT22;16245;51.170;4.884;2022-12-07T13:16:35;8.60;99.90
29203;DHT22;16245;51.170;4.884;2022-12-07T13:18:41;8.60;99.90
29203;DHT22;16245;51.170;4.884;2022-12-07T13:23:54;8.60;99.90
29203;DHT22;16245;51.170;4.884;2022-12-07T13:29:11;8.60;99.90
29203;DHT22;16245;51.170;4.884;2022-12-07T13:31:54;8.80;99.90
29203;DHT22;16245;51.170;4.884;2022-12-07T13:34:38;8.80;99.90
29203;DHT22;16245;51.170;4.884;2022-12-07T13:39:50;8.70;99.90
29203;DHT22;16245;51.170;4.884;2022-12-07T13:42:26;8.70;99.90
29203;DHT22;16245;51.170;4.884;2022-12-07T13:44:53;8.60;99.90
29203;DHT22;16245;51.170;4.884;2022-12-07T13:47:35;8.40;99.90
29203;DHT22;16245;51.170;4.884;2022-12-07T13:50:22;8.30;99.90
29203;DHT22;16245;51.170;4.884;2022-12-07T13:52:48;8.30;99.90
29203;DHT22;16245;51.170;4.884;2022-12-07T13:55:16;8.30;99.90
29203;DHT22;16245;51.170;4.884;2022-12-07T13:57:44;8.40;99.90
29203;DHT22;16245;51.170;4.884;2022-12-07T14:00:16;8.40;99.90
29203;DHT22;16245;51.170;4.884;2022-12-07T14:05:31;8.40;99.90
29203;DHT22;16245;51.170;4.884;2022-12-07T14:07:58;8.30;99.90
29203;DHT22;16245;51.170;4.884;2022-12-07T14:12:55;8.20;99.90
29203;DHT22;16245;51.170;4.884;2022-12-07T14:15:32;8.20;99.90
29203;DHT22;16245;51.170;4.884;2022-12-07T14:18:00;8.20;99.90
29203;DHT22;16245;51.170;4.884;2022-12-07T14:23:24;8.00;99.90
29203;DHT22;16245;51.170;4.884;2022-12-07T14:25:51;7.90;99.90
29203;DHT22;16245;51.170;4.884;2022-12-07T14:28:32;8.00;99.90
29203;DHT22;16245;51.170;4.884;2022-12-07T14:30:59;8.00;99.90
29203;DHT22;16245;51.170;4.884;2022-12-07T14:33:26;8.00;99.90
29203;DHT22;16245;51.170;4.884;2022-12-07T14:35:52;8.00;99.90
29203;DHT22;16245;51.170;4.884;2022-12-07T14:38:23;7.90;99.90
29203;DHT22;16245;51.170;4.884;2022-12-07T14:40:51;7.80;99.90
29203;DHT22;16245;51.170;4.884;2022-12-07T14:43:17;8.00;99.90
29203;DHT22;16245;51.170;4.884;2022-12-07T14:45:43;8.00;99.90
29203;DHT22;16245;51.170;4.884;2022-12-07T14:48:14;8.00;99.90
29203;DHT22;16245;51.170;4.884;2022-12-07T14:50:45;8.00;99.90
29203;DHT22;16245;51.170;4.884;2022-12-07T14:53:15;7.90;99.90
29203;DHT22;16245;51.170;4.884;2022-12-07T14:55:41;7.90;99.90
29203;DHT22;16245;51.170;4.884;2022-12-07T14:58:16;7.80;99.90
29203;DHT22;16245;51.170;4.884;2022-12-07T15:00:42;7.80;99.90
29203;DHT22;16245;51.170;4.884;2022-12-07T15:03:08;7.80;99.90
29203;DHT22;16245;51.170;4.884;2022-12-07T15:05:34;7.70;99.90
29203;DHT22;16245;51.170;4.884;2022-12-07T15:08:00;7.70;99.90
29203;DHT22;16245;51.170;4.884;2022-12-07T15:10:28;7.60;99.90
29203;DHT22;16245;51.170;4.884;2022-12-07T15:12:57;7.50;99.90
29203;DHT22;16245;51.170;4.884;2022-12-07T15:15:47;7.60;99.90
29203;DHT22;16245;51.170;4.884;2022-12-07T15:18:13;7.60;99.90
29203;DHT22;16245;51.170;4.884;2022-12-07T15:20:38;7.60;99.90
29203;DHT22;16245;51.170;4.884;2022-12-07T15:23:04;7.60;99.90
29203;DHT22;16245;51.170;4.884;2022-12-07T15:25:30;7.50;99.90
29203;DHT22;16245;51.170;4.884;2022-12-07T15:27:56;7.40;99.90
29203;DHT22;16245;51.170;4.884;2022-12-07T15:30:21;7.50;99.90
29203;DHT22;16245;51.170;4.884;2022-12-07T15:32:51;7.50;99.90
29203;DHT22;16245;51.170;4.884;2022-12-07T15:35:17;7.40;99.90
29203;DHT22;16245;51.170;4.884;2022-12-07T15:37:42;7.40;99.90
29203;DHT22;16245;51.170;4.884;2022-12-07T15:40:09;7.30;99.90
29203;DHT22;16245;51.170;4.884;2022-12-07T15:42:35;7.20;99.90
29203;DHT22;16245;51.170;4.884;2022-12-07T15:45:02;7.10;99.90
29203;DHT22;16245;51.170;4.884;2022-12-07T15:47:36;7.10;99.90
29203;DHT22;16245;51.170;4.884;2022-12-07T15:50:04;7.00;99.90
29203;DHT22;16245;51.170;4.884;2022-12-07T15:52:30;7.00;99.90
29203;DHT22;16245;51.170;4.884;2022-12-07T15:54:56;7.00;99.90
29203;DHT22;16245;51.170;4.884;2022-12-07T15:57:22;7.00;99.90
29203;DHT22;16245;51.170;4.884;2022-12-07T15:59:47;7.00;99.90
29203;DHT22;16245;51.170;4.884;2022-12-07T16:02:13;6.90;99.90
29203;DHT22;16245;51.170;4.884;2022-12-07T16:04:39;6.80;99.90
29203;DHT22;16245;51.170;4.884;2022-12-07T16:07:05;6.60;99.90
29203;DHT22;16245;51.170;4.884;2022-12-07T16:09:31;6.40;99.90
29203;DHT22;16245;51.170;4.884;2022-12-07T16:11:57;6.30;99.90
29203;DHT22;16245;51.170;4.884;2022-12-07T16:14:22;6.30;99.90
29203;DHT22;16245;51.170;4.884;2022-12-07T16:16:49;6.20;99.90
29203;DHT22;16245;51.170;4.884;2022-12-07T16:19:15;6.30;99.90
29203;DHT22;16245;51.170;4.884;2022-12-07T16:21:41;6.30;99.90
29203;DHT22;16245;51.170;4.884;2022-12-07T16:24:08;6.30;99.90
29203;DHT22;16245;51.170;4.884;2022-12-07T16:26:34;6.20;99.90
29203;DHT22;16245;51.170;4.884;2022-12-07T16:28:59;6.20;99.90
29203;DHT22;16245;51.170;4.884;2022-12-07T16:31:26;6.10;99.90
29203;DHT22;16245;51.170;4.884;2022-12-07T16:33:54;6.10;99.90
29203;DHT22;16245;51.170;4.884;2022-12-07T16:36:20;6.10;99.90
29203;DHT22;16245;51.170;4.884;2022-12-07T16:38:47;6.10;99.90
29203;DHT22;16245;51.170;4.884;2022-12-07T16:41:14;6.20;99.90
29203;DHT22;16245;51.170;4.884;2022-12-07T16:43:40;6.30;99.90
29203;DHT22;16245;51.170;4.884;2022-12-07T16:46:05;6.30;99.90
29203;DHT22;16245;51.170;4.884;2022-12-07T16:48:34;6.30;99.90
29203;DHT22;16245;51.170;4.884;2022-12-07T16:51:04;6.40;99.90
29203;DHT22;16245;51.170;4.884;2022-12-07T16:53:30;6.30;99.90
29203;DHT22;16245;51.170;4.884;2022-12-07T16:55:55;6.20;99.90
29203;DHT22;16245;51.170;4.884;2022-12-07T16:58:21;6.20;99.90
29203;DHT22;16245;51.170;4.884;2022-12-07T17:00:47;6.00;99.90
29203;DHT22;16245;51.170;4.884;2022-12-07T17:03:14;6.00;99.90
29203;DHT22;16245;51.170;4.884;2022-12-07T17:05:41;5.90;99.90
29203;DHT22;16245;51.170;4.884;2022-12-07T17:08:08;6.10;99.90
29203;DHT22;16245;51.170;4.884;2022-12-07T17:10:35;6.10;99.90
29203;DHT22;16245;51.170;4.884;2022-12-07T17:13:02;6.10;99.90
29203;DHT22;16245;51.170;4.884;2022-12-07T17:15:58;6.10;99.90
29203;DHT22;16245;51.170;4.884;2022-12-07T17:18:27;6.20;99.90
29203;DHT22;16245;51.170;4.884;2022-12-07T17:20:53;6.30;99.90
29203;DHT22;16245;51.170;4.884;2022-12-07T17:23:19;6.40;99.90
29203;DHT22;16245;51.170;4.884;2022-12-07T17:25:45;6.40;99.90
29203;DHT22;16245;51.170;4.884;2022-12-07T17:28:10;6.30;99.90
29203;DHT22;16245;51.170;4.884;2022-12-07T17:30:38;6.40;99.90
29203;DHT22;16245;51.170;4.884;2022-12-07T17:33:03;6.40;99.90
29203;DHT22;16245;51.170;4.884;2022-12-07T17:35:29;6.30;99.90
29203;DHT22;16245;51.170;4.884;2022-12-07T17:37:55;6.40;99.90
29203;DHT22;16245;51.170;4.884;2022-12-07T17:40:21;6.40;99.90
29203;DHT22;16245;51.170;4.884;2022-12-07T17:42:47;6.30;99.90
29203;DHT22;16245;51.170;4.884;2022-12-07T17:45:16;6.30;99.90
29203;DHT22;16245;51.170;4.884;2022-12-07T17:47:42;6.30;99.90
29203;DHT22;16245;51.170;4.884;2022-12-07T17:50:08;6.20;99.90
29203;DHT22;16245;51.170;4.884;2022-12-07T17:52:37;6.10;99.90
29203;DHT22;16245;51.170;4.884;2022-12-07T17:55:22;6.10;99.90
29203;DHT22;16245;51.170;4.884;2022-12-07T17:57:48;6.20;99.90
29203;DHT22;16245;51.170;4.884;2022-12-07T18:00:14;6.20;99.90